Time;durP1;ratioP1;P1;durP2;ratioP2;P2;SDS_P1;SDS_P2;PMS_P1;PMS_P2;Temp;Humidity;BMP_temperature;BMP_pressure;BME280_temperature;BME280_humidity;BME280_pressure;Samples;Min_cycle;Max_cycle;Signal;HPM_P1;HPM_P2
2022/03/08 00:00:50;;;;;;;36.97;16.95;;;;;;;0.24;68.81;102431.78;5002683;28;20116;-65
2022/03/08 00:03:18;;;;;;;36.47;15.30;;;;;;;0.13;69.02;102435.22;5018434;28;20064;-65
2022/03/08 00:05:44;;;;;;;40.08;16.60;;;;;;;0.03;68.63;102430.81;5003001;28;20506;-66
2022/03/08 00:08:10;;;;;;;32.47;15.73;;;;;;;-0.05;69.64;102430.75;5018357;28;20046;-65
2022/03/08 00:10:35;;;;;;;38.92;15.80;;;;;;;0.02;69.12;102429.06;5003241;28;20034;-65
2022/03/08 00:13:01;;;;;;;34.65;16.52;;;;;;;0.06;69.00;102421.22;5002767;28;20068;-66
2022/03/08 00:15:26;;;;;;;35.17;14.77;;;;;;;0.14;68.82;102424.75;5002562;28;20102;-65
2022/03/08 00:17:55;;;;;;;37.58;15.88;;;;;;;0.13;68.36;102423.00;5002650;28;20041;-66
2022/03/08 00:20:20;;;;;;;33.28;15.85;;;;;;;0.27;68.06;102427.44;5002325;28;20505;-65
2022/03/08 00:22:46;;;;;;;31.38;15.07;;;;;;;0.27;67.75;102420.44;5017168;28;20132;-66
2022/03/08 00:25:12;;;;;;;27.70;15.05;;;;;;;0.20;67.87;102416.03;5002804;28;20041;-65
2022/03/08 00:27:45;;;;;;;28.98;14.07;;;;;;;0.19;67.50;102409.91;5000977;28;20513;-66
2022/03/08 00:30:12;;;;;;;32.80;15.80;;;;;;;0.14;68.16;102406.38;5003083;28;20103;-66
2022/03/08 00:32:37;;;;;;;36.25;15.00;;;;;;;0.21;67.31;102400.31;5018048;28;20041;-65
2022/03/08 00:35:03;;;;;;;30.30;15.43;;;;;;;0.17;67.17;102395.03;5018074;28;20076;-66
2022/03/08 00:37:28;;;;;;;34.50;14.77;;;;;;;0.22;67.19;102396.81;5003362;28;20061;-65
2022/03/08 00:39:54;;;;;;;28.65;14.32;;;;;;;0.25;67.22;102395.94;5003897;28;20046;-65
2022/03/08 00:42:20;;;;;;;27.77;13.98;;;;;;;0.29;66.97;102394.22;5003692;28;20628;-66
2022/03/08 00:44:45;;;;;;;24.55;12.98;;;;;;;0.27;66.96;102390.72;5004141;28;20045;-66
2022/03/08 00:47:11;;;;;;;30.15;13.95;;;;;;;0.26;66.81;102389.84;5003709;28;20042;-66
2022/03/08 00:49:38;;;;;;;32.00;14.10;;;;;;;0.22;66.64;102388.94;5019829;28;20033;-66
2022/03/08 00:52:05;;;;;;;28.73;14.48;;;;;;;0.16;66.93;102391.56;5004641;28;20163;-66
2022/03/08 00:54:30;;;;;;;29.08;14.10;;;;;;;0.20;66.80;102389.78;5004414;28;20060;-66
2022/03/08 00:56:56;;;;;;;28.50;14.18;;;;;;;0.20;66.78;102395.03;5018766;28;20482;-66
2022/03/08 00:59:22;;;;;;;25.60;12.68;;;;;;;0.10;67.28;102388.91;5019042;28;20171;-65
2022/03/08 01:01:48;;;;;;;27.60;13.88;;;;;;;0.10;66.74;102383.66;5006187;28;20527;-67
2022/03/08 01:04:13;;;;;;;28.02;13.50;;;;;;;0.15;66.51;102378.41;5005303;28;20053;-67
2022/03/08 01:06:42;;;;;;;29.27;12.90;;;;;;;0.12;66.38;102384.53;5006482;28;20072;-66
2022/03/08 01:09:10;;;;;;;25.75;13.88;;;;;;;0.07;66.62;102378.38;4989233;28;20038;-66
2022/03/08 01:11:39;;;;;;;27.67;13.77;;;;;;;0.02;66.65;102377.50;5006380;28;20125;-66
2022/03/08 01:14:07;;;;;;;29.10;13.93;;;;;;;0.02;66.23;102381.88;5007059;28;20042;-65
2022/03/08 01:16:34;;;;;;;33.25;14.60;;;;;;;0.03;66.14;102374.00;5021835;28;20068;-66
2022/03/08 01:18:59;;;;;;;26.80;13.65;;;;;;;0.09;65.91;102375.75;5004723;28;20410;-65
2022/03/08 01:21:25;;;;;;;24.63;12.68;;;;;;;0.03;66.23;102374.00;5004521;28;20042;-67
2022/03/08 01:23:53;;;;;;;32.13;13.90;;;;;;;0.07;66.16;102377.50;4988552;28;20536;-66
2022/03/08 01:26:19;;;;;;;25.88;13.40;;;;;;;0.07;66.22;102385.38;5005697;28;20049;-66
2022/03/08 01:28:45;;;;;;;29.98;13.70;;;;;;;0.04;65.83;102367.00;5003942;28;20058;-66
2022/03/08 01:31:10;;;;;;;29.52;13.70;;;;;;;0.08;66.02;102367.03;5006458;28;20042;-66
2022/03/08 01:33:36;;;;;;;28.85;14.48;;;;;;;0.03;65.44;102373.13;5005838;28;20758;-66
2022/03/08 01:36:02;;;;;;;32.88;14.10;;;;;;;-0.01;65.53;102380.97;5004407;28;20046;-66
2022/03/08 01:38:28;;;;;;;28.38;13.93;;;;;;;-0.03;65.47;102366.09;5005691;28;20033;-66
2022/03/08 01:40:55;;;;;;;25.02;12.43;;;;;;;-0.04;65.42;102361.72;5004027;28;20042;-66
2022/03/08 01:43:20;;;;;;;27.95;13.50;;;;;;;-0.02;65.47;102363.47;5004550;28;20046;-66
2022/03/08 01:45:46;;;;;;;27.27;12.43;;;;;;;-0.06;65.43;102347.72;4988899;28;20229;-66
2022/03/08 01:48:12;;;;;;;21.10;11.35;;;;;;;-0.05;64.72;102352.09;5004121;28;20505;-66
2022/03/08 01:50:37;;;;;;;24.60;12.32;;;;;;;-0.12;65.09;102353.81;5020811;28;20054;-66
2022/03/08 01:53:04;;;;;;;21.30;12.27;;;;;;;-0.16;64.57;102346.78;5003877;28;20046;-66
2022/03/08 01:55:30;;;;;;;24.98;12.18;;;;;;;-0.27;64.57;102349.38;5005565;28;20138;-66
2022/03/08 01:57:55;;;;;;;28.63;12.75;;;;;;;-0.26;64.97;102348.50;5005052;28;20053;-66
2022/03/08 02:00:24;;;;;;;23.65;11.93;;;;;;;-0.36;64.84;102349.31;5005134;28;20485;-66
2022/03/08 02:02:50;;;;;;;23.50;12.10;;;;;;;-0.43;64.97;102354.50;5003741;28;20092;-67
2022/03/08 02:05:16;;;;;;;25.48;13.05;;;;;;;-0.62;65.68;102346.53;5003841;28;20038;-66
2022/03/08 02:07:42;;;;;;;26.85;11.98;;;;;;;-0.82;66.48;102337.66;5019807;28;20586;-66
2022/03/08 02:10:09;;;;;;;22.65;11.98;;;;;;;-0.96;66.86;102332.28;5020076;28;20851;-65
2022/03/08 02:12:34;;;;;;;21.52;11.48;;;;;;;-0.98;66.72;102333.16;5004122;28;20038;-66
2022/03/08 02:15:18;;;;;;;23.20;11.73;;;;;;;-0.81;65.99;102321.94;5004686;28;20069;-66
2022/03/08 02:17:44;;;;;;;19.88;10.68;;;;;;;-0.75;65.59;102317.59;5004838;28;20038;-66
2022/03/08 02:20:11;;;;;;;23.33;10.98;;;;;;;-0.63;65.25;102317.72;5004817;28;20684;-66
2022/03/08 02:22:39;;;;;;;25.48;11.13;;;;;;;-0.81;65.87;102321.06;5019366;28;20119;-66
2022/03/08 02:25:05;;;;;;;22.33;10.93;;;;;;;-0.89;65.78;102322.78;5002481;28;20045;-66
2022/03/08 02:27:31;;;;;;;22.80;10.60;;;;;;;-1.13;67.01;102315.59;5003942;28;20554;-66
2022/03/08 02:29:58;;;;;;;25.80;10.90;;;;;;;-1.09;66.50;102315.63;5004288;28;20058;-66
2022/03/08 02:32:24;;;;;;;24.40;10.85;;;;;;;-1.13;66.63;102310.34;4986154;28;20141;-66
2022/03/08 02:34:49;;;;;;;20.63;11.18;;;;;;;-0.90;65.48;102303.56;5002181;28;20042;-67
2022/03/08 02:37:15;;;;;;;17.73;9.57;;;;;;;-0.73;64.84;102308.91;5002673;28;20076;-67
2022/03/08 02:39:40;;;;;;;18.88;10.10;;;;;;;-0.66;64.61;102305.44;5003085;28;20030;-66
2022/03/08 02:42:07;;;;;;;17.67;9.32;;;;;;;-0.61;63.94;102301.13;5018752;28;20049;-66
2022/03/08 02:44:33;;;;;;;14.02;8.82;;;;;;;-0.63;64.45;102300.25;5004062;28;20137;-66
2022/03/08 02:47:03;;;;;;;18.27;9.27;;;;;;;-0.76;64.50;102306.25;5004389;28;20041;-65
2022/03/08 02:49:30;;;;;;;20.02;9.73;;;;;;;-1.01;65.59;102301.72;5019344;28;20041;-67
2022/03/08 02:51:56;;;;;;;18.70;9.55;;;;;;;-0.98;65.25;102304.38;5002823;28;20046;-66
2022/03/08 02:54:22;;;;;;;18.88;9.88;;;;;;;-1.08;65.64;102304.28;5002606;28;20847;-66
2022/03/08 02:56:48;;;;;;;24.15;9.63;;;;;;;-0.97;65.56;102303.50;5020466;28;20115;-66
2022/03/08 02:59:23;;;;;;;18.55;9.52;;;;;;;-0.86;64.83;102301.81;5004818;28;20623;-66
2022/03/08 03:01:49;;;;;;;21.30;8.80;;;;;;;-0.81;64.74;102301.00;5003862;28;20440;-66
2022/03/08 03:04:15;;;;;;;21.05;9.15;;;;;;;-0.82;64.73;102301.88;5002458;28;20125;-67
2022/03/08 03:06:40;;;;;;;18.95;9.60;;;;;;;-0.86;64.85;102307.94;5002560;28;20402;-66
2022/03/08 03:09:06;;;;;;;23.73;9.93;;;;;;;-0.81;64.50;102297.50;5003693;28;20136;-66
2022/03/08 03:11:32;;;;;;;16.02;9.25;;;;;;;-0.84;64.94;102300.13;5003839;28;20061;-66
2022/03/08 03:13:58;;;;;;;17.98;9.70;;;;;;;-0.86;64.64;102301.81;5003627;28;20066;-66
2022/03/08 03:16:24;;;;;;;20.13;9.40;;;;;;;-0.83;64.58;102304.47;5002068;28;20729;-66
2022/03/08 03:18:49;;;;;;;18.35;9.05;;;;;;;-0.92;64.65;102297.41;5003455;28;20045;-66
2022/03/08 03:21:15;;;;;;;18.70;9.35;;;;;;;-0.82;64.67;102301.88;4998014;28;20476;-65
2022/03/08 03:23:40;;;;;;;14.27;9.25;;;;;;;-0.84;64.39;102303.59;4983259;28;20066;-66
2022/03/08 03:26:06;;;;;;;14.40;8.98;;;;;;;-0.80;64.40;102296.66;4984172;28;20587;-66
2022/03/08 03:28:31;;;;;;;15.05;8.73;;;;;;;-0.80;64.36;102289.69;4983836;28;20050;-66
2022/03/08 03:30:57;;;;;;;17.55;8.23;;;;;;;-0.77;64.71;102291.41;4984244;28;20042;-66
2022/03/08 03:33:22;;;;;;;17.90;9.32;;;;;;;-0.79;64.43;102286.19;4984186;28;20073;-66
2022/03/08 03:35:48;;;;;;;19.38;8.82;;;;;;;-0.71;64.19;102290.59;4983779;28;20049;-67
2022/03/08 03:38:13;;;;;;;16.48;8.50;;;;;;;-0.82;64.48;102287.91;4983845;28;20042;-66
2022/03/08 03:40:39;;;;;;;16.77;9.43;;;;;;;-0.92;64.63;102288.69;4983523;28;20042;-66
2022/03/08 03:43:04;;;;;;;20.13;9.27;;;;;;;-0.99;65.26;102295.63;4983481;28;20069;-66
2022/03/08 03:45:30;;;;;;;17.60;8.85;;;;;;;-1.05;65.27;102290.38;4981671;28;20117;-66
2022/03/08 03:47:55;;;;;;;16.92;8.63;;;;;;;-0.96;65.10;102289.53;4983132;28;20100;-67
2022/03/08 03:50:20;;;;;;;15.80;8.93;;;;;;;-0.92;64.87;102289.56;4982962;28;20034;-66
2022/03/08 03:52:46;;;;;;;15.05;9.10;;;;;;;-0.87;64.75;102281.75;4981094;28;20590;-66
2022/03/08 03:55:13;;;;;;;18.75;8.88;;;;;;;-0.84;64.48;102287.03;4982847;28;20068;-66
2022/03/08 03:57:38;;;;;;;17.73;9.30;;;;;;;-0.87;64.37;102289.59;4998077;28;20042;-66
2022/03/08 04:00:07;;;;;;;15.13;8.82;;;;;;;-0.97;65.02;102287.78;4983132;28;20030;-66
2022/03/08 04:02:37;;;;;;;17.88;8.98;;;;;;;-1.03;65.12;102288.63;4983233;28;20128;-66
2022/03/08 04:05:02;;;;;;;14.85;8.18;;;;;;;-1.01;65.00;102283.38;4997748;28;20038;-66
2022/03/08 04:07:28;;;;;;;19.15;9.35;;;;;;;-1.00;65.25;102278.19;4981647;28;20050;-67
2022/03/08 04:09:54;;;;;;;14.52;8.32;;;;;;;-0.92;64.61;102284.34;4982979;28;20095;-68
2022/03/08 04:12:20;;;;;;;15.35;8.30;;;;;;;-0.82;63.94;102277.41;4997280;28;20054;-66
2022/03/08 04:14:45;;;;;;;18.00;9.27;;;;;;;-0.84;64.11;102277.41;4997185;28;20041;-66
2022/03/08 04:17:11;;;;;;;16.75;9.40;;;;;;;-0.76;63.57;102272.22;4982599;28;20837;-66
2022/03/08 04:19:36;;;;;;;20.08;9.52;;;;;;;-0.81;63.82;102266.94;4982738;28;20132;-66
2022/03/08 04:22:02;;;;;;;17.02;9.10;;;;;;;-0.84;63.93;102268.69;5000400;28;20045;-66
2022/03/08 04:24:28;;;;;;;14.13;7.78;;;;;;;-0.73;63.58;102263.53;5017171;28;20037;-66
2022/03/08 04:26:53;;;;;;;14.18;8.35;;;;;;;-0.87;64.05;102268.66;5000091;28;20037;-67
2022/03/08 04:29:19;;;;;;;14.95;7.68;;;;;;;-0.93;64.40;102263.38;5002386;28;20133;-66
2022/03/08 04:31:44;;;;;;;18.52;8.90;;;;;;;-0.87;63.73;102261.69;5002377;28;20107;-71
2022/03/08 04:34:10;;;;;;;18.40;9.13;;;;;;;-0.85;63.69;102267.81;5001883;28;20053;-66
2022/03/08 04:36:36;;;;;;;17.80;9.05;;;;;;;-0.89;63.68;102268.66;5017423;28;20042;-66
2022/03/08 04:39:02;;;;;;;13.02;8.30;;;;;;;-0.83;63.30;102266.06;5001161;28;20046;-67
2022/03/08 04:41:27;;;;;;;19.15;9.13;;;;;;;-0.86;63.80;102270.41;5002143;28;20188;-66
2022/03/08 04:43:53;;;;;;;26.40;8.75;;;;;;;-0.73;62.89;102271.38;5001860;28;20038;-66
2022/03/08 04:46:18;;;;;;;20.00;9.25;;;;;;;-0.76;63.46;102260.88;5002086;28;20141;-66
2022/03/08 04:48:44;;;;;;;15.63;8.57;;;;;;;-0.76;63.39;102255.63;5000411;28;20038;-67
2022/03/08 04:51:09;;;;;;;22.55;9.02;;;;;;;-0.73;63.42;102260.91;5017203;28;20040;-66
2022/03/08 04:53:35;;;;;;;15.15;8.23;;;;;;;-0.81;63.49;102261.72;5017235;28;20057;-66
2022/03/08 04:56:00;;;;;;;16.20;9.30;;;;;;;-0.84;63.72;102266.94;5002568;28;20132;-66
2022/03/08 04:58:25;;;;;;;16.45;9.00;;;;;;;-0.96;64.04;102263.34;5016897;28;20149;-67
2022/03/08 05:00:51;;;;;;;20.35;8.52;;;;;;;-1.02;64.46;102256.34;5000659;28;20049;-66
2022/03/08 05:03:16;;;;;;;15.20;8.93;;;;;;;-0.96;63.98;102248.53;5002178;28;20832;-67
2022/03/08 05:05:42;;;;;;;15.88;8.73;;;;;;;-0.93;63.95;102255.53;5002011;28;20096;-66
2022/03/08 05:08:07;;;;;;;13.60;7.82;;;;;;;-1.01;64.22;102255.47;5017508;28;20038;-66
2022/03/08 05:10:33;;;;;;;16.95;9.05;;;;;;;-0.97;64.12;102251.13;5002644;28;20406;-66
2022/03/08 05:13:00;;;;;;;19.50;8.55;;;;;;;-0.97;64.07;102257.25;5016957;28;20053;-66
2022/03/08 05:15:25;;;;;;;21.65;9.27;;;;;;;-1.08;64.27;102262.41;5016563;28;20427;-66
2022/03/08 05:17:51;;;;;;;18.33;10.15;;;;;;;-1.11;64.43;102259.75;5001720;28;20038;-66
2022/03/08 05:20:16;;;;;;;23.33;10.57;;;;;;;-1.10;64.33;102258.03;5016710;28;20443;-65
2022/03/08 05:22:42;;;;;;;20.95;9.90;;;;;;;-1.06;64.31;102254.56;5001649;28;20054;-67
2022/03/08 05:25:08;;;;;;;17.60;9.23;;;;;;;-1.11;64.73;102256.25;5000327;28;20038;-66
2022/03/08 05:27:34;;;;;;;15.38;9.02;;;;;;;-1.07;64.65;102252.81;4984508;28;20049;-66
2022/03/08 05:30:00;;;;;;;14.65;8.18;;;;;;;-1.09;64.48;102255.44;5000585;28;20037;-66
2022/03/08 05:32:25;;;;;;;16.75;8.73;;;;;;;-1.01;63.92;102258.09;5002575;28;20837;-66
2022/03/08 05:34:51;;;;;;;16.88;9.18;;;;;;;-0.97;64.25;102252.00;5001945;28;20096;-66
2022/03/08 05:37:16;;;;;;;19.80;9.10;;;;;;;-0.94;63.68;102246.81;5002168;28;20033;-66
2022/03/08 05:39:42;;;;;;;19.60;9.85;;;;;;;-0.90;63.12;102248.59;5002040;28;20436;-66
2022/03/08 05:42:08;;;;;;;15.98;9.15;;;;;;;-0.90;62.86;102252.94;5002532;28;20045;-66
2022/03/08 05:44:33;;;;;;;17.30;8.88;;;;;;;-0.91;63.27;102253.78;5001592;28;20563;-66
2022/03/08 05:46:59;;;;;;;17.98;9.18;;;;;;;-0.95;63.65;102254.66;5001004;28;20092;-66
2022/03/08 05:49:24;;;;;;;16.73;9.10;;;;;;;-0.97;63.52;102249.38;5004240;28;20045;-66
2022/03/08 05:51:50;;;;;;;14.95;8.77;;;;;;;-0.99;63.95;102245.03;5003065;28;20049;-66
2022/03/08 05:54:16;;;;;;;19.60;10.82;;;;;;;-0.99;63.42;102251.13;5019061;28;20851;-66
2022/03/08 05:56:41;;;;;;;16.88;8.48;;;;;;;-0.95;63.48;102247.69;5004364;28;20135;-66
2022/03/08 05:59:07;;;;;;;18.52;9.30;;;;;;;-1.00;64.03;102249.38;5005702;28;20125;-66
2022/03/08 06:01:32;;;;;;;17.60;8.60;;;;;;;-0.99;63.82;102248.53;5004753;28;20042;-66
2022/03/08 06:03:58;;;;;;;15.13;8.60;;;;;;;-1.05;63.72;102248.47;5020012;28;20057;-66
2022/03/08 06:06:23;;;;;;;21.05;10.55;;;;;;;-1.05;63.40;102244.13;5019868;28;20056;-67
2022/03/08 06:08:49;;;;;;;23.38;10.05;;;;;;;-1.06;64.04;102247.56;5019760;28;20050;-66
2022/03/08 06:11:16;;;;;;;17.67;9.82;;;;;;;-1.06;64.42;102251.94;5018982;28;20080;-66
2022/03/08 06:13:41;;;;;;;17.85;9.88;;;;;;;-1.17;64.49;102256.22;5003970;28;20550;-66
2022/03/08 06:16:07;;;;;;;17.10;9.77;;;;;;;-1.16;64.52;102253.59;5004757;28;20046;-66
2022/03/08 06:18:32;;;;;;;18.08;10.35;;;;;;;-1.22;64.34;102248.34;5002583;28;20069;-65
2022/03/08 06:20:57;;;;;;;16.08;9.48;;;;;;;-1.14;64.62;102253.66;5004361;28;20049;-67
2022/03/08 06:23:23;;;;;;;19.33;10.55;;;;;;;-1.12;64.08;102255.38;5005165;28;20048;-66
2022/03/08 06:25:48;;;;;;;20.67;10.60;;;;;;;-1.04;63.81;102252.84;5004874;28;20044;-66
2022/03/08 06:28:14;;;;;;;17.08;9.52;;;;;;;-1.00;63.47;102256.34;5019912;28;20133;-66
2022/03/08 06:30:39;;;;;;;19.10;9.65;;;;;;;-0.95;63.54;102255.53;5005160;28;20105;-66
2022/03/08 06:33:05;;;;;;;24.92;11.15;;;;;;;-0.91;63.40;102259.03;5019698;28;20045;-66
2022/03/08 06:35:31;;;;;;;19.08;10.02;;;;;;;-0.82;63.24;102257.34;5019751;28;20044;-66
2022/03/08 06:37:57;;;;;;;20.35;9.93;;;;;;;-0.78;63.45;102260.88;5018777;28;20048;-65
2022/03/08 06:40:24;;;;;;;19.98;10.07;;;;;;;-0.79;63.40;102257.38;5018350;28;20042;-66
2022/03/08 06:42:49;;;;;;;22.05;10.68;;;;;;;-0.74;62.97;102264.41;5001753;28;20138;-66
2022/03/08 06:45:15;;;;;;;17.83;9.60;;;;;;;-0.70;63.14;102276.63;5003092;28;20052;-66
2022/03/08 06:47:41;;;;;;;19.00;9.70;;;;;;;-0.64;63.21;102272.31;5017430;28;20092;-66
2022/03/08 06:50:07;;;;;;;23.30;10.23;;;;;;;-0.47;63.21;102263.66;5001477;28;20111;-66
2022/03/08 06:52:33;;;;;;;18.15;10.38;;;;;;;-0.21;62.15;102267.25;5003410;28;20042;-66
2022/03/08 06:54:58;;;;;;;19.30;10.20;;;;;;;0.14;61.41;102271.75;5003231;28;20045;-65
2022/03/08 06:57:24;;;;;;;16.50;9.40;;;;;;;0.34;60.40;102266.56;5017462;28;20038;-66
2022/03/08 06:59:50;;;;;;;19.98;10.00;;;;;;;0.61;59.36;102263.97;5000998;28;20518;-67
2022/03/08 07:02:16;;;;;;;21.52;10.13;;;;;;;0.77;58.81;102259.59;5018372;28;20046;-65
2022/03/08 07:04:41;;;;;;;15.63;9.73;;;;;;;0.93;57.89;102266.59;5002113;28;20050;-66
2022/03/08 07:07:07;;;;;;;18.50;9.88;;;;;;;1.23;57.65;102257.81;5002238;28;20056;-67
2022/03/08 07:09:32;;;;;;;20.08;9.55;;;;;;;1.28;57.30;102263.91;5003956;28;20038;-66
2022/03/08 07:11:59;;;;;;;21.55;10.52;;;;;;;1.38;56.90;102256.88;5018405;28;20124;-69
2022/03/08 07:14:25;;;;;;;22.23;11.50;;;;;;;1.63;56.14;102251.56;5018471;28;20411;-66
2022/03/08 07:16:51;;;;;;;17.45;9.52;;;;;;;1.77;55.83;102253.25;5003964;28;20046;-66
2022/03/08 07:19:16;;;;;;;24.65;10.10;;;;;;;1.95;55.17;102256.66;5002444;28;20046;-65
2022/03/08 07:21:42;;;;;;;15.35;9.10;;;;;;;2.11;54.56;102255.72;5003566;28;20049;-66
2022/03/08 07:24:08;;;;;;;17.13;9.98;;;;;;;2.08;55.05;102266.25;5018843;28;20042;-66
2022/03/08 07:26:34;;;;;;;18.05;10.60;;;;;;;2.21;54.67;102262.69;5018616;28;20052;-66
2022/03/08 07:28:59;;;;;;;18.35;10.65;;;;;;;2.28;54.47;102264.38;5003230;28;20054;-66
2022/03/08 07:31:25;;;;;;;16.95;10.60;;;;;;;2.50;53.90;102264.25;5003394;28;20037;-66
2022/03/08 07:33:51;;;;;;;17.65;9.25;;;;;;;2.68;53.31;102261.47;5002325;28;20046;-66
2022/03/08 07:36:17;;;;;;;20.05;10.27;;;;;;;2.70;53.16;102261.44;5004052;28;20061;-66
2022/03/08 07:38:42;;;;;;;15.65;10.13;;;;;;;2.80;52.31;102268.41;5003190;28;20038;-66
2022/03/08 07:41:07;;;;;;;16.95;9.73;;;;;;;2.76;52.82;102267.56;5018119;28;20602;-66
2022/03/08 07:43:34;;;;;;;16.13;9.75;;;;;;;2.66;52.49;102258.00;5003521;28;20045;-67
2022/03/08 07:46:00;;;;;;;22.08;9.98;;;;;;;2.83;52.53;102274.53;5003440;28;20696;-66
2022/03/08 07:48:26;;;;;;;15.02;8.68;;;;;;;2.71;52.75;102269.38;5003130;28;20053;-66
2022/03/08 07:50:52;;;;;;;16.95;9.13;;;;;;;2.76;53.50;102271.94;5018224;28;20049;-66
2022/03/08 07:53:17;;;;;;;19.90;9.20;;;;;;;3.11;52.38;102275.16;5003080;28;20053;-66
2022/03/08 07:55:43;;;;;;;13.57;8.65;;;;;;;3.09;52.27;102274.28;5001652;28;20652;-67
2022/03/08 07:58:13;;;;;;;17.00;8.95;;;;;;;3.03;52.73;102286.66;5002982;28;20041;-67
2022/03/08 08:00:40;;;;;;;15.52;8.52;;;;;;;3.29;52.53;102274.09;5017684;28;20042;-67
2022/03/08 08:03:07;;;;;;;21.05;9.70;;;;;;;3.46;52.31;102278.31;5003573;28;20121;-66
2022/03/08 08:05:34;;;;;;;15.48;8.60;;;;;;;3.44;52.27;102270.44;5003331;28;20167;-66
2022/03/08 08:08:00;;;;;;;19.45;9.00;;;;;;;3.37;51.50;102280.19;5003218;28;20081;-68
2022/03/08 08:10:26;;;;;;;14.43;8.48;;;;;;;3.16;52.56;102283.00;5002578;28;20089;-66
2022/03/08 08:12:51;;;;;;;19.90;8.30;;;;;;;3.22;52.13;102280.34;5002613;28;20050;-66
2022/03/08 08:15:17;;;;;;;16.52;8.68;;;;;;;3.20;52.44;102286.50;5002656;28;20048;-66
2022/03/08 08:17:43;;;;;;;16.52;8.55;;;;;;;3.18;53.37;102288.28;5002618;28;20061;-66
2022/03/08 08:20:08;;;;;;;14.82;8.20;;;;;;;3.24;51.81;102296.13;5002616;28;20038;-66
2022/03/08 08:22:34;;;;;;;13.50;8.25;;;;;;;3.28;52.52;102287.31;5003103;28;20053;-67
2022/03/08 08:24:59;;;;;;;14.95;8.80;;;;;;;3.33;52.17;102285.50;5002855;28;20458;-66
2022/03/08 08:27:25;;;;;;;18.25;8.73;;;;;;;3.52;52.04;102281.78;5017212;28;20050;-67
2022/03/08 08:29:50;;;;;;;14.95;7.97;;;;;;;3.66;52.79;102280.72;5018429;28;20176;-66
2022/03/08 08:32:17;;;;;;;14.63;8.45;;;;;;;3.60;51.82;102277.28;5002576;28;20046;-66
2022/03/08 08:34:42;;;;;;;14.73;8.60;;;;;;;3.63;51.95;102282.53;5002053;28;20046;-66
2022/03/08 08:37:09;;;;;;;15.98;8.85;;;;;;;3.53;51.51;102275.59;5002390;28;20038;-66
2022/03/08 08:39:35;;;;;;;16.63;8.27;;;;;;;3.77;50.87;102277.09;5000436;28;20410;-67
2022/03/08 08:42:00;;;;;;;18.10;8.40;;;;;;;3.87;51.47;102276.09;5002379;28;20046;-68
2022/03/08 08:44:26;;;;;;;17.17;8.27;;;;;;;3.99;50.08;102268.91;5001968;28;20034;-66
2022/03/08 08:46:53;;;;;;;16.67;8.50;;;;;;;4.09;51.31;102274.03;5000603;28;20066;-65
2022/03/08 08:49:18;;;;;;;11.45;6.68;;;;;;;4.10;49.30;102259.06;5001984;28;20037;-66
2022/03/08 08:51:43;;;;;;;14.60;7.97;;;;;;;4.05;50.11;102253.84;5016700;28;20632;-65
2022/03/08 08:54:09;;;;;;;14.75;7.55;;;;;;;4.14;50.12;102256.38;5016639;28;20402;-66
2022/03/08 08:56:35;;;;;;;14.60;8.20;;;;;;;4.37;50.38;102250.75;5016850;28;20867;-65
2022/03/08 08:59:04;;;;;;;14.50;8.20;;;;;;;4.39;49.49;102256.88;5016749;28;20042;-67
2022/03/08 09:01:30;;;;;;;13.25;8.15;;;;;;;4.41;49.17;102254.22;5002032;28;20054;-67
2022/03/08 09:03:56;;;;;;;13.93;7.35;;;;;;;4.47;49.20;102251.50;5002658;28;20077;-67
2022/03/08 09:06:21;;;;;;;12.60;7.78;;;;;;;4.64;48.84;102244.16;5002875;28;20061;-65
2022/03/08 09:08:46;;;;;;;11.30;7.32;;;;;;;4.90;49.03;102238.44;5017647;28;20038;-66
2022/03/08 09:11:12;;;;;;;15.00;7.47;;;;;;;4.82;48.98;102243.00;5003814;28;20037;-67
2022/03/08 09:13:38;;;;;;;13.63;8.20;;;;;;;5.12;48.47;102231.03;5003993;28;20049;-67
2022/03/08 09:16:04;;;;;;;15.55;8.45;;;;;;;5.21;47.49;102232.59;5003742;28;20041;-66
2022/03/08 09:18:30;;;;;;;15.30;8.18;;;;;;;5.56;47.66;102223.09;5003464;28;20057;-67
2022/03/08 09:20:55;;;;;;;12.23;7.47;;;;;;;5.65;46.20;102221.16;5003993;28;20037;-66
2022/03/08 09:23:21;;;;;;;17.48;8.48;;;;;;;5.76;46.13;102214.75;5005287;28;20076;-67
2022/03/08 09:25:46;;;;;;;10.27;7.07;;;;;;;5.50;44.25;102205.59;5021439;28;20049;-66
2022/03/08 09:28:12;;;;;;;9.23;6.75;;;;;;;5.49;44.38;102219.72;5004204;28;20081;-66
2022/03/08 09:30:38;;;;;;;15.18;6.85;;;;;;;5.54;44.40;102211.69;5004939;28;20045;-67
2022/03/08 09:33:04;;;;;;;13.95;7.72;;;;;;;5.62;43.98;102201.81;5021520;28;20139;-66
2022/03/08 09:35:30;;;;;;;14.57;7.75;;;;;;;5.63;44.64;102201.78;5004656;28;20614;-66
2022/03/08 09:37:56;;;;;;;13.15;7.25;;;;;;;5.68;43.58;102197.28;5006358;28;20046;-67
2022/03/08 09:40:23;;;;;;;15.20;7.45;;;;;;;5.89;44.19;102193.28;5006082;28;20050;-67
2022/03/08 09:42:50;;;;;;;10.90;6.13;;;;;;;5.85;43.11;102191.59;5004480;28;20062;-66
2022/03/08 09:45:17;;;;;;;14.05;7.22;;;;;;;5.89;43.56;102187.13;5005642;28;20119;-66
2022/03/08 09:47:43;;;;;;;10.50;6.55;;;;;;;5.95;43.13;102190.53;5005487;28;20057;-66
2022/03/08 09:50:10;;;;;;;14.98;7.60;;;;;;;6.20;42.55;102184.69;5005517;28;20099;-67
2022/03/08 09:52:37;;;;;;;15.52;7.50;;;;;;;6.31;42.91;102190.59;5005603;28;20045;-67
2022/03/08 09:55:03;;;;;;;12.00;6.85;;;;;;;6.22;41.79;102188.16;5004112;28;20056;-66
2022/03/08 09:57:29;;;;;;;12.40;6.72;;;;;;;6.29;42.98;102188.91;5005655;28;20046;-66
2022/03/08 09:59:55;;;;;;;16.23;7.10;;;;;;;6.43;42.65;102181.50;5020611;28;20526;-67
2022/03/08 10:02:23;;;;;;;9.90;6.90;;;;;;;6.37;42.59;102176.31;5003479;28;20045;-67
2022/03/08 10:05:05;;;;;;;10.60;6.95;;;;;;;6.89;43.00;102177.66;5003550;28;20053;-66
2022/03/08 10:07:31;;;;;;;14.10;7.90;;;;;;;6.75;42.94;102181.53;5005025;28;20049;-67
2022/03/08 10:09:58;;;;;;;13.20;7.30;;;;;;;6.71;42.57;102182.50;5003378;28;20467;-67
2022/03/08 10:12:24;;;;;;;13.10;8.27;;;;;;;6.75;43.25;102178.00;5003483;28;20508;-66
2022/03/08 10:14:51;;;;;;;11.25;7.43;;;;;;;6.68;41.76;102179.97;5005097;28;20046;-67
2022/03/08 10:17:40;;;;;;;14.38;7.28;;;;;;;6.93;42.37;102166.94;5004781;28;20052;-67
2022/03/08 10:20:09;;;;;;;11.43;7.05;;;;;;;7.26;43.10;102158.94;5019308;28;20073;-67
2022/03/08 10:22:41;;;;;;;15.20;7.95;;;;;;;7.61;42.55;102157.91;5004240;28;20085;-67
2022/03/08 10:25:22;;;;;;;14.10;6.97;;;;;;;7.34;40.56;102154.28;5004089;28;20812;-67
2022/03/08 10:27:53;;;;;;;15.10;6.80;;;;;;;7.40;40.88;102159.41;5018500;28;20056;-67
2022/03/08 10:30:19;;;;;;;19.08;7.88;;;;;;;7.67;39.80;102157.72;5018773;28;20038;-67
2022/03/08 10:32:46;;;;;;;10.32;7.05;;;;;;;7.86;41.30;102162.47;5003411;28;20609;-67
2022/03/08 10:35:22;;;;;;;13.02;6.32;;;;;;;7.67;38.62;102148.88;5003959;28;20064;-66
2022/03/08 10:37:47;;;;;;;12.40;7.22;;;;;;;7.65;39.55;102153.38;5004265;28;20038;-67
2022/03/08 10:40:21;;;;;;;12.55;6.63;;;;;;;7.56;38.50;102145.69;5004322;28;20038;-67
2022/03/08 10:42:58;;;;;;;11.73;7.10;;;;;;;7.48;38.95;102152.13;5003703;28;20741;-67
2022/03/08 10:45:26;;;;;;;20.67;6.90;;;;;;;7.92;38.15;102156.97;5018982;28;20049;-67
2022/03/08 10:47:53;;;;;;;17.75;8.30;;;;;;;7.97;38.91;102147.94;5018367;28;20038;-67
2022/03/08 10:50:28;;;;;;;12.38;7.07;;;;;;;8.14;38.62;102150.09;5018654;28;20141;-67
2022/03/08 10:52:56;;;;;;;11.40;6.93;;;;;;;8.01;37.79;102138.97;5003225;28;20127;-69
2022/03/08 10:55:27;;;;;;;12.15;6.80;;;;;;;8.37;38.53;102136.06;5002889;28;20033;-68
2022/03/08 10:57:55;;;;;;;9.18;6.00;;;;;;;8.28;37.86;102128.34;5003433;28;20132;-67
2022/03/08 11:00:32;;;;;;;11.30;6.03;;;;;;;8.44;37.00;102123.44;5003146;28;20183;-68
2022/03/08 11:03:01;;;;;;;12.43;6.10;;;;;;;8.14;35.57;102123.50;4985417;28;20045;-68
2022/03/08 11:05:30;;;;;;;18.38;6.07;;;;;;;8.86;35.54;102110.44;5003419;28;20041;-67
2022/03/08 11:07:57;;;;;;;11.73;5.43;;;;;;;8.80;35.57;102108.88;5003521;28;20049;-68
2022/03/08 11:10:24;;;;;;;9.57;5.28;;;;;;;8.88;35.48;102121.88;4999375;28;20046;-68
2022/03/08 11:12:52;;;;;;;11.75;6.10;;;;;;;8.60;34.90;102102.53;4985065;28;20042;-67
2022/03/08 11:15:19;;;;;;;7.68;5.22;;;;;;;8.59;34.83;102111.44;4982193;28;20042;-67